createdAt,value
2017-12-28T00:00:03.665Z,4.00
2017-12-28T00:02:32.680Z,4.00
2017-12-28T00:05:02.053Z,4.00
2017-12-28T00:07:31.092Z,4.00
2017-12-28T00:10:00.060Z,4.00
2017-12-28T00:12:29.836Z,4.00
2017-12-28T00:17:58.016Z,4.10
2017-12-28T00:20:27.001Z,4.10
2017-12-28T00:22:58.896Z,4.10
2017-12-28T00:25:27.876Z,4.10
2017-12-28T00:27:56.895Z,4.10
2017-12-28T00:30:26.703Z,4.00
2017-12-28T00:32:55.667Z,3.90
2017-12-28T00:36:27.414Z,4.00
2017-12-28T00:38:56.387Z,4.00
2017-12-28T00:41:25.356Z,4.10
2017-12-28T00:43:55.093Z,4.10
2017-12-28T00:46:24.058Z,4.10
2017-12-28T00:48:53.837Z,4.00
2017-12-28T00:51:22.778Z,4.00
2017-12-28T00:53:51.771Z,4.10
2017-12-28T00:56:20.808Z,4.00
2017-12-28T00:58:49.798Z,4.00
2017-12-28T01:01:18.753Z,4.00
2017-12-28T01:03:47.771Z,4.00
2017-12-28T01:06:16.743Z,4.00
2017-12-28T01:08:45.716Z,4.00
2017-12-28T01:11:24.191Z,4.10
2017-12-28T01:13:53.155Z,4.00
2017-12-28T01:16:22.420Z,4.00
2017-12-28T01:18:52.152Z,4.10
2017-12-28T01:21:21.120Z,4.00
2017-12-28T01:23:50.871Z,4.10
2017-12-28T01:26:19.799Z,4.00
2017-12-28T01:28:48.788Z,4.10
2017-12-28T01:31:18.570Z,4.10
2017-12-28T01:33:47.516Z,4.00
2017-12-28T01:36:17.368Z,4.10
2017-12-28T01:38:46.326Z,4.00
2017-12-28T01:41:25.710Z,4.00
2017-12-28T01:43:54.757Z,4.00
2017-12-28T01:46:24.467Z,4.00
2017-12-28T01:48:54.200Z,3.90
2017-12-28T01:51:23.151Z,3.90
2017-12-28T01:53:52.079Z,3.90
2017-12-28T01:56:21.024Z,4.00
2017-12-28T01:58:50.735Z,4.00
2017-12-28T02:01:19.659Z,3.90
2017-12-28T02:03:48.726Z,4.00
2017-12-28T02:06:18.471Z,3.90
2017-12-28T02:08:47.471Z,3.90
2017-12-28T02:11:23.925Z,4.00
2017-12-28T02:13:52.888Z,4.00
2017-12-28T02:16:22.067Z,4.00
2017-12-28T02:18:51.779Z,3.90
2017-12-28T02:21:20.747Z,3.80
2017-12-28T02:23:49.667Z,3.80
2017-12-28T02:26:18.665Z,3.80
2017-12-28T02:28:48.416Z,3.70
2017-12-28T02:31:17.424Z,3.70
2017-12-28T02:33:51.214Z,3.60
2017-12-28T02:36:26.464Z,3.60
2017-12-28T02:38:55.409Z,3.60
2017-12-28T02:41:24.384Z,3.60
2017-12-28T02:43:53.412Z,3.60
2017-12-28T02:46:23.276Z,3.60
2017-12-28T02:48:52.312Z,3.60
2017-12-28T02:51:22.100Z,3.60
2017-12-28T02:53:51.084Z,3.60
2017-12-28T02:56:20.221Z,3.60
2017-12-28T02:58:49.954Z,3.60
2017-12-28T03:01:18.951Z,3.50
2017-12-28T03:03:47.935Z,3.50
2017-12-28T03:06:26.106Z,3.50
2017-12-28T03:08:55.215Z,3.50
2017-12-28T03:11:24.947Z,3.40
2017-12-28T03:13:53.909Z,3.30
2017-12-28T03:16:22.935Z,3.30
2017-12-28T03:18:51.895Z,3.20
2017-12-28T03:21:20.840Z,3.20
2017-12-28T03:23:50.012Z,3.20
2017-12-28T03:26:19.112Z,3.00
2017-12-28T03:28:48.056Z,3.00
2017-12-28T03:31:16.997Z,3.00
2017-12-28T03:33:46.023Z,2.90
2017-12-28T03:36:14.956Z,2.90
2017-12-28T03:38:44.711Z,2.90
2017-12-28T03:41:13.708Z,2.80
2017-12-28T03:43:42.905Z,2.80
2017-12-28T03:46:12.185Z,2.80
2017-12-28T03:48:41.452Z,2.80
2017-12-28T03:51:11.174Z,2.70
2017-12-28T03:53:40.933Z,2.70
2017-12-28T03:56:09.895Z,2.70
2017-12-28T03:58:38.928Z,2.70
2017-12-28T04:01:07.860Z,2.70
2017-12-28T04:03:37.612Z,2.80
2017-12-28T04:06:07.341Z,2.70
2017-12-28T04:08:36.293Z,2.70
2017-12-28T04:11:05.291Z,2.70
2017-12-28T04:13:34.227Z,2.70
2017-12-28T04:16:03.256Z,2.70
2017-12-28T04:18:33.009Z,2.70
2017-12-28T04:21:02.002Z,2.70
2017-12-28T04:23:31.013Z,2.70
2017-12-28T04:25:59.963Z,2.60
2017-12-28T04:28:28.897Z,2.60
2017-12-28T04:30:57.870Z,2.60
2017-12-28T04:33:28.305Z,2.60
2017-12-28T04:35:57.260Z,2.70
2017-12-28T04:38:26.993Z,2.70
2017-12-28T04:40:55.964Z,2.70
2017-12-28T04:43:24.969Z,2.70
2017-12-28T04:45:53.939Z,2.70
2017-12-28T04:48:23.952Z,2.80
2017-12-28T04:50:53.917Z,2.80
2017-12-28T04:53:22.971Z,2.80
2017-12-28T04:55:52.019Z,2.80
2017-12-28T04:58:21.859Z,2.70
2017-12-28T05:00:51.616Z,2.70
2017-12-28T05:03:20.586Z,2.60
2017-12-28T05:05:49.577Z,2.70
2017-12-28T05:08:18.520Z,2.70
2017-12-28T05:10:47.511Z,2.70
2017-12-28T05:13:17.271Z,2.70
2017-12-28T05:15:46.230Z,2.70
2017-12-28T05:18:15.240Z,2.80
2017-12-28T05:20:44.941Z,2.70
2017-12-28T05:23:14.788Z,2.80
2017-12-28T05:25:43.807Z,2.70
2017-12-28T05:28:13.448Z,2.70
2017-12-28T05:30:42.438Z,2.70
2017-12-28T05:33:11.399Z,2.70
2017-12-28T05:35:40.364Z,2.70
2017-12-28T05:38:09.314Z,2.70
2017-12-28T05:40:39.057Z,2.70
2017-12-28T05:43:08.122Z,2.60
2017-12-28T05:45:37.134Z,2.70
2017-12-28T05:48:12.212Z,2.70
2017-12-28T05:50:42.044Z,2.60
2017-12-28T05:53:10.988Z,2.60
2017-12-28T05:55:39.928Z,2.70
2017-12-28T05:58:08.835Z,2.60
2017-12-28T06:00:37.864Z,2.60
2017-12-28T06:03:06.902Z,2.50
2017-12-28T06:05:35.911Z,2.50
2017-12-28T06:08:04.898Z,2.50
2017-12-28T06:10:33.945Z,2.50
2017-12-28T06:13:02.989Z,2.50
2017-12-28T06:15:32.782Z,2.60
2017-12-28T06:18:02.589Z,2.50
2017-12-28T06:20:31.519Z,2.50
2017-12-28T06:23:00.441Z,2.50
2017-12-28T06:25:29.386Z,2.50
2017-12-28T06:27:58.403Z,2.50
2017-12-28T06:30:28.189Z,2.50
2017-12-28T06:32:57.168Z,2.50
2017-12-28T06:35:26.120Z,2.50
2017-12-28T06:37:55.075Z,2.50
2017-12-28T06:40:24.126Z,2.50
2017-12-28T06:42:53.075Z,2.50
2017-12-28T06:45:22.817Z,2.60
2017-12-28T06:47:51.859Z,2.50
2017-12-28T06:50:20.871Z,2.60
2017-12-28T06:52:50.619Z,2.60
2017-12-28T06:55:19.569Z,2.50
2017-12-28T06:57:48.590Z,2.60
2017-12-28T07:00:17.580Z,2.60
2017-12-28T07:02:46.576Z,2.60
2017-12-28T07:05:16.257Z,2.60
2017-12-28T07:07:46.017Z,2.60
2017-12-28T07:10:14.984Z,2.60
2017-12-28T07:16:24.672Z,2.60
2017-12-28T07:18:53.797Z,2.60
2017-12-28T07:21:23.564Z,2.60
2017-12-28T07:23:52.576Z,2.50
2017-12-28T07:26:21.620Z,2.60
2017-12-28T07:28:51.412Z,2.60
2017-12-28T07:31:20.405Z,2.60
2017-12-28T07:33:49.372Z,2.60
2017-12-28T07:36:18.343Z,2.60
2017-12-28T07:38:47.306Z,2.60
2017-12-28T07:41:17.088Z,2.60
2017-12-28T07:43:46.098Z,2.50
2017-12-28T07:46:15.140Z,2.50
2017-12-28T07:48:45.254Z,2.50
2017-12-28T07:51:14.275Z,2.50
2017-12-28T07:53:43.353Z,2.60
2017-12-28T07:56:12.328Z,2.50
2017-12-28T07:58:41.352Z,2.50
2017-12-28T08:01:10.504Z,2.50
2017-12-28T08:03:40.274Z,2.50
2017-12-28T08:06:09.293Z,2.50
2017-12-28T08:08:39.144Z,2.50
2017-12-28T08:11:08.213Z,2.50
2017-12-28T08:13:37.231Z,2.60
2017-12-28T08:16:06.314Z,2.60
2017-12-28T08:18:35.416Z,2.60
2017-12-28T08:21:04.550Z,2.70
2017-12-28T08:23:33.548Z,2.70
2017-12-28T08:26:04.243Z,2.60
2017-12-28T08:28:33.422Z,2.60
2017-12-28T08:31:03.932Z,2.60
2017-12-28T08:33:33.783Z,2.70
2017-12-28T08:36:03.249Z,2.60
2017-12-28T08:38:32.272Z,2.70
2017-12-28T08:41:01.342Z,2.70
2017-12-28T08:43:31.106Z,2.60
2017-12-28T08:46:00.070Z,2.60
2017-12-28T08:48:29.203Z,2.60
2017-12-28T08:50:58.249Z,2.60
2017-12-28T08:53:28.024Z,2.70
2017-12-28T08:56:11.337Z,2.70
2017-12-28T08:58:40.310Z,2.70
2017-12-28T09:01:09.343Z,2.70
2017-12-28T09:03:38.422Z,2.80
2017-12-28T09:06:07.426Z,2.80
2017-12-28T09:08:36.559Z,2.80
2017-12-28T09:11:06.363Z,2.90
2017-12-28T09:13:35.440Z,2.90
2017-12-28T09:16:04.675Z,2.90
2017-12-28T09:18:33.962Z,3.00
2017-12-28T09:21:11.679Z,3.00
2017-12-28T09:23:40.874Z,3.00
2017-12-28T09:26:11.112Z,3.00
2017-12-28T09:28:40.193Z,3.10
2017-12-28T09:31:09.320Z,3.10
2017-12-28T09:37:11.730Z,3.20
2017-12-28T09:39:40.868Z,3.10
2017-12-28T09:42:10.223Z,3.20
2017-12-28T09:44:39.232Z,3.10
2017-12-28T09:47:08.348Z,3.10
2017-12-28T09:49:37.359Z,3.20
2017-12-28T09:52:07.288Z,3.20
2017-12-28T09:54:36.328Z,3.10
2017-12-28T09:57:05.360Z,3.20
2017-12-28T09:59:34.323Z,3.20
2017-12-28T10:02:03.385Z,3.10
2017-12-28T10:04:32.381Z,3.20
2017-12-28T10:07:01.445Z,3.20
2017-12-28T10:09:30.572Z,3.10
2017-12-28T10:11:59.657Z,3.10
2017-12-28T10:14:28.752Z,3.20
2017-12-28T10:16:57.897Z,3.30
2017-12-28T10:19:27.729Z,3.40
2017-12-28T10:21:56.741Z,3.30
2017-12-28T10:24:26.496Z,3.50
2017-12-28T10:26:55.544Z,3.40
2017-12-28T10:29:24.706Z,3.50
2017-12-28T10:31:54.890Z,3.50
2017-12-28T10:34:23.948Z,3.40
2017-12-28T10:36:53.706Z,3.50
2017-12-28T10:39:22.836Z,3.50
2017-12-28T10:41:52.720Z,3.60
2017-12-28T10:44:21.735Z,3.50
2017-12-28T10:46:58.464Z,3.70
2017-12-28T10:49:28.347Z,3.90
2017-12-28T10:52:09.381Z,3.90
2017-12-28T10:54:55.712Z,3.90
2017-12-28T10:57:59.844Z,3.90
2017-12-28T11:03:29.295Z,4.00
2017-12-28T11:06:09.943Z,3.80
2017-12-28T11:08:46.542Z,3.80
2017-12-28T11:11:27.161Z,3.80
2017-12-28T11:14:11.827Z,3.50
2017-12-28T11:16:58.074Z,3.50
2017-12-28T12:06:22.149Z,3.40
2017-12-28T12:08:55.305Z,4.00
2017-12-28T12:11:24.368Z,3.90
2017-12-28T12:13:54.396Z,3.80
2017-12-28T12:16:24.119Z,3.80
2017-12-28T12:18:53.095Z,3.70
2017-12-28T12:21:22.117Z,3.70
2017-12-28T12:23:51.923Z,3.80
2017-12-28T12:26:25.399Z,3.90
2017-12-28T12:28:55.383Z,3.90
2017-12-28T12:31:24.598Z,3.90
2017-12-28T12:33:54.478Z,3.90
2017-12-28T12:36:23.475Z,3.80
2017-12-28T12:38:52.606Z,3.90
2017-12-28T12:41:22.385Z,3.90
2017-12-28T12:43:52.174Z,3.90
2017-12-28T12:46:21.284Z,3.90
2017-12-28T12:48:51.063Z,3.90
2017-12-28T12:51:21.935Z,3.90
2017-12-28T12:53:51.669Z,4.20
2017-12-28T12:56:26.404Z,4.10
2017-12-28T12:58:55.498Z,4.10
2017-12-28T13:01:24.462Z,4.10
2017-12-28T13:03:53.496Z,4.30
2017-12-28T13:06:23.597Z,4.40
2017-12-28T13:08:52.745Z,4.40
2017-12-28T13:11:21.685Z,4.50
2017-12-28T13:13:50.826Z,4.40
2017-12-28T13:16:20.691Z,4.10
2017-12-28T13:18:49.794Z,4.00
2017-12-28T13:21:18.950Z,3.90
2017-12-28T13:23:47.989Z,3.80
2017-12-28T13:26:17.764Z,3.60
2017-12-28T13:28:46.838Z,3.60
2017-12-28T13:31:16.081Z,3.50
2017-12-28T13:33:45.114Z,3.40
2017-12-28T13:36:14.292Z,3.30
2017-12-28T13:38:44.216Z,3.40
2017-12-28T13:41:14.001Z,3.30
2017-12-28T13:43:43.862Z,3.20
2017-12-28T13:46:12.897Z,3.20
2017-12-28T13:48:41.903Z,3.20
2017-12-28T13:51:10.915Z,3.20
2017-12-28T13:53:40.711Z,3.20
2017-12-28T13:56:09.763Z,3.10
2017-12-28T13:58:38.752Z,3.10
2017-12-28T14:01:07.755Z,3.10
2017-12-28T14:03:36.798Z,3.10
2017-12-28T14:06:05.948Z,3.10
2017-12-28T14:08:35.038Z,3.10
2017-12-28T14:11:04.774Z,3.10
2017-12-28T14:13:33.767Z,3.00
2017-12-28T14:16:02.755Z,3.10
2017-12-28T14:18:32.555Z,3.00
2017-12-28T14:21:02.323Z,2.90
2017-12-28T14:23:31.450Z,2.90
2017-12-28T14:26:00.638Z,2.90
2017-12-28T14:28:30.004Z,2.90
2017-12-28T14:30:59.887Z,2.70
2017-12-28T14:33:33.598Z,2.70
2017-12-28T14:36:02.723Z,2.70
2017-12-28T14:38:31.830Z,2.60
2017-12-28T14:41:00.925Z,2.70
2017-12-28T14:43:30.092Z,2.60
2017-12-28T14:45:59.920Z,2.70
2017-12-28T14:48:29.051Z,2.70
2017-12-28T14:50:58.115Z,2.80
2017-12-28T14:53:27.909Z,2.70
2017-12-28T14:55:57.062Z,2.70
2017-12-28T14:58:26.121Z,2.80
2017-12-28T15:00:55.904Z,2.70
2017-12-28T15:03:25.947Z,2.70
2017-12-28T15:05:56.082Z,2.60
2017-12-28T15:08:29.031Z,2.60
2017-12-28T15:10:58.233Z,2.40
2017-12-28T15:13:27.367Z,2.40
2017-12-28T15:15:56.424Z,2.30
2017-12-28T15:18:26.253Z,2.20
2017-12-28T15:20:56.234Z,2.30
2017-12-28T15:23:25.346Z,2.20
2017-12-28T15:25:55.231Z,2.20
2017-12-28T15:28:24.231Z,2.20
2017-12-28T15:30:54.008Z,2.20
2017-12-28T15:33:23.316Z,2.10
2017-12-28T15:35:52.939Z,2.10
2017-12-28T15:38:21.989Z,2.10
2017-12-28T15:40:51.831Z,2.00
2017-12-28T15:43:20.994Z,1.90
2017-12-28T15:45:50.064Z,1.90
2017-12-28T15:48:19.099Z,1.90
2017-12-28T15:50:48.150Z,1.80
2017-12-28T15:53:19.321Z,1.70
2017-12-28T15:55:49.163Z,1.60
2017-12-28T15:58:18.133Z,1.60
2017-12-28T16:00:48.927Z,1.60
2017-12-28T16:03:18.676Z,1.60
2017-12-28T16:05:48.484Z,1.60
2017-12-28T16:08:17.625Z,1.60
2017-12-28T16:10:46.797Z,1.60
2017-12-28T16:13:15.829Z,1.70
2017-12-28T16:15:44.947Z,1.60
2017-12-28T16:18:14.824Z,1.70
2017-12-28T16:20:45.905Z,1.60
2017-12-28T16:23:15.854Z,1.70
2017-12-28T16:25:45.658Z,1.70
2017-12-28T16:28:15.154Z,1.70
2017-12-28T16:30:44.536Z,1.80
2017-12-28T16:33:20.135Z,1.80
2017-12-28T16:35:50.113Z,1.80
2017-12-28T16:38:20.018Z,1.80
2017-12-28T16:40:49.823Z,1.90
2017-12-28T16:43:18.824Z,1.80
2017-12-28T16:45:47.848Z,1.90
2017-12-28T16:48:17.021Z,1.90
2017-12-28T16:50:46.864Z,1.80
2017-12-28T16:53:15.968Z,1.80
2017-12-28T16:55:44.979Z,1.90
2017-12-28T16:58:14.005Z,1.90
2017-12-28T17:00:43.294Z,1.90
2017-12-28T17:03:12.398Z,2.00
2017-12-28T17:05:42.236Z,1.90
2017-12-28T17:08:12.083Z,1.90
2017-12-28T17:10:41.150Z,1.90
2017-12-28T17:13:13.925Z,1.90
2017-12-28T17:15:43.888Z,2.00
2017-12-28T17:18:12.972Z,1.90
2017-12-28T17:20:41.940Z,1.90
2017-12-28T17:23:10.931Z,1.90
2017-12-28T17:25:39.948Z,1.90
2017-12-28T17:28:11.116Z,1.90
2017-12-28T17:30:40.208Z,1.80
2017-12-28T17:33:09.749Z,1.80
2017-12-28T17:35:38.807Z,1.80
2017-12-28T17:38:07.845Z,1.80
2017-12-28T17:40:37.761Z,1.70
2017-12-28T17:43:10.307Z,1.70
2017-12-28T17:45:40.083Z,1.70
2017-12-28T17:48:09.075Z,1.70
2017-12-28T17:50:38.866Z,1.60
2017-12-28T17:53:07.849Z,1.60
2017-12-28T17:55:36.898Z,1.70
2017-12-28T17:58:05.971Z,1.70
2017-12-28T18:00:35.714Z,1.60
2017-12-28T18:03:04.732Z,1.60
2017-12-28T18:05:34.587Z,1.60
2017-12-28T18:08:03.645Z,1.50
2017-12-28T18:10:33.488Z,1.50
